createdAt,value
2018-12-22T00:00:24.692Z,73.35
2018-12-22T00:02:54.968Z,73.76
2018-12-22T00:05:25.261Z,73.70
2018-12-22T00:07:55.368Z,74.75
2018-12-22T00:10:25.621Z,74.28
2018-12-22T00:12:55.813Z,74.54
2018-12-22T00:15:26.207Z,74.29
2018-12-22T00:17:56.298Z,74.42
2018-12-22T00:20:26.519Z,74.76
2018-12-22T00:22:56.729Z,74.13
2018-12-22T00:25:27.051Z,74.47
2018-12-22T00:27:57.260Z,74.01
2018-12-22T00:30:27.528Z,74.58
2018-12-22T00:32:58.346Z,74.31
2018-12-22T00:35:28.568Z,73.68
2018-12-22T00:37:58.777Z,73.62
2018-12-22T00:40:28.994Z,73.71
2018-12-22T00:42:59.185Z,73.25
2018-12-22T00:45:29.377Z,73.15
2018-12-22T00:47:59.565Z,73.71
2018-12-22T00:50:29.805Z,73.11
2018-12-22T00:53:00.056Z,72.77
2018-12-22T00:55:30.245Z,73.63
2018-12-22T00:58:00.460Z,74.24
2018-12-22T01:00:30.758Z,74.53
2018-12-22T01:03:00.924Z,74.85
2018-12-22T01:05:31.024Z,74.67
2018-12-22T01:08:01.259Z,73.99
2018-12-22T01:10:31.617Z,73.78
2018-12-22T01:13:01.942Z,73.53
2018-12-22T01:15:32.219Z,74.20
2018-12-22T01:18:02.583Z,73.46
2018-12-22T01:20:33.019Z,72.79
2018-12-22T01:23:03.460Z,72.47
2018-12-22T01:25:33.653Z,72.90
2018-12-22T01:28:03.799Z,73.48
2018-12-22T01:30:34.029Z,73.55
2018-12-22T01:33:04.409Z,73.34
2018-12-22T01:35:34.572Z,73.18
2018-12-22T01:38:05.004Z,73.45
2018-12-22T01:40:35.080Z,71.99
2018-12-22T01:43:05.431Z,71.39
2018-12-22T01:45:35.675Z,71.35
2018-12-22T01:48:05.954Z,72.55
2018-12-22T01:50:36.221Z,71.89
2018-12-22T01:53:06.689Z,72.54
2018-12-22T01:55:37.114Z,72.73
2018-12-22T01:58:07.815Z,73.15
2018-12-22T02:00:38.031Z,73.39
2018-12-22T02:03:08.293Z,73.57
2018-12-22T02:05:38.505Z,73.96
2018-12-22T02:08:08.868Z,73.87
2018-12-22T02:10:40.117Z,74.26
2018-12-22T02:13:10.339Z,73.58
2018-12-22T02:15:40.404Z,74.74
2018-12-22T02:18:10.687Z,74.44
2018-12-22T02:20:41.094Z,74.44
2018-12-22T02:23:11.364Z,73.54
2018-12-22T02:25:41.537Z,73.63
2018-12-22T02:28:11.830Z,72.76
2018-12-22T02:30:42.049Z,72.50
2018-12-22T02:33:12.283Z,73.36
2018-12-22T02:35:43.289Z,72.90
2018-12-22T02:38:13.586Z,73.47
2018-12-22T02:40:43.822Z,73.41
2018-12-22T02:43:14.084Z,72.21
2018-12-22T02:45:44.358Z,72.79
2018-12-22T02:48:14.661Z,71.67
2018-12-22T02:50:45.011Z,72.54
2018-12-22T02:53:15.287Z,71.87
2018-12-22T02:55:45.567Z,72.59
2018-12-22T02:58:15.771Z,72.61
2018-12-22T03:00:47.177Z,72.30
2018-12-22T03:03:17.407Z,72.73
2018-12-22T03:05:47.679Z,73.83
2018-12-22T03:08:17.977Z,73.48
2018-12-22T03:10:48.209Z,73.89
2018-12-22T03:13:18.456Z,73.54
2018-12-22T03:15:48.864Z,74.13
2018-12-22T03:18:18.879Z,72.88
2018-12-22T03:20:49.142Z,72.52
2018-12-22T03:23:19.412Z,71.94
2018-12-22T03:25:49.659Z,72.89
2018-12-22T03:28:19.897Z,72.94
2018-12-22T03:30:50.768Z,73.15
2018-12-22T03:33:20.993Z,73.79
2018-12-22T03:35:51.253Z,74.08
2018-12-22T03:38:21.564Z,74.47
2018-12-22T03:40:51.869Z,75.28
2018-12-22T03:43:22.675Z,75.04
2018-12-22T03:45:52.862Z,75.17
2018-12-22T03:48:23.189Z,75.27
2018-12-22T03:50:53.456Z,75.15
2018-12-22T03:53:23.702Z,75.15
2018-12-22T03:55:53.964Z,73.75
2018-12-22T03:58:24.427Z,73.86
2018-12-22T04:00:54.681Z,73.82
2018-12-22T04:03:24.979Z,73.24
2018-12-22T04:05:55.796Z,73.26
2018-12-22T04:08:26.109Z,72.89
2018-12-22T04:10:56.521Z,72.75
2018-12-22T04:13:26.716Z,73.79
2018-12-22T04:15:57.591Z,72.78
2018-12-22T04:18:27.832Z,72.80
2018-12-22T04:20:58.068Z,72.34
2018-12-22T04:23:28.313Z,72.04
2018-12-22T04:25:58.515Z,71.66
2018-12-22T04:28:28.592Z,71.29
2018-12-22T04:30:58.826Z,71.49
2018-12-22T04:33:28.921Z,71.77
2018-12-22T04:35:59.158Z,72.11
2018-12-22T04:38:29.454Z,71.93
2018-12-22T04:40:59.639Z,71.90
2018-12-22T04:43:29.932Z,71.06
2018-12-22T04:46:00.445Z,71.25
2018-12-22T04:48:30.683Z,72.11
2018-12-22T04:51:00.840Z,71.23
2018-12-22T04:53:32.234Z,71.49
2018-12-22T04:56:02.439Z,71.39
2018-12-22T04:58:32.639Z,71.93
2018-12-22T05:01:02.716Z,71.35
2018-12-22T05:03:32.948Z,71.93
2018-12-22T05:06:03.161Z,71.19
2018-12-22T05:08:33.397Z,71.36
2018-12-22T05:11:03.655Z,72.07
2018-12-22T05:13:33.834Z,71.33
2018-12-22T05:16:04.416Z,71.63
2018-12-22T05:18:34.682Z,72.87
2018-12-22T05:21:05.413Z,72.92
2018-12-22T05:23:35.624Z,72.39
2018-12-22T05:26:06.553Z,71.18
2018-12-22T05:28:36.752Z,70.61
2018-12-22T05:31:06.949Z,71.15
2018-12-22T05:33:37.241Z,71.71
2018-12-22T05:36:07.540Z,73.07
2018-12-22T05:38:37.769Z,73.81
2018-12-22T05:41:08.229Z,75.10
2018-12-22T05:43:38.466Z,74.38
2018-12-22T05:46:08.676Z,73.43
2018-12-22T05:48:38.912Z,73.99
2018-12-22T05:51:09.176Z,74.26
2018-12-22T05:53:39.432Z,74.86
2018-12-22T05:56:09.589Z,74.92
2018-12-22T05:58:40.374Z,73.94
2018-12-22T06:01:10.710Z,73.20
2018-12-22T06:03:40.910Z,74.59
2018-12-22T06:06:11.669Z,75.02
2018-12-22T06:08:41.924Z,73.94
2018-12-22T06:11:12.196Z,74.70
2018-12-22T06:13:43.523Z,74.96
2018-12-22T06:16:13.751Z,74.38
2018-12-22T06:18:43.915Z,73.24
2018-12-22T06:21:14.255Z,73.24
2018-12-22T06:23:44.542Z,72.25
2018-12-22T06:26:14.750Z,72.63
2018-12-22T06:28:44.949Z,71.76
2018-12-22T06:31:15.142Z,71.84
2018-12-22T06:33:45.277Z,70.60
2018-12-22T06:36:15.563Z,70.34
2018-12-22T06:38:45.871Z,69.63
2018-12-22T06:41:16.189Z,70.16
2018-12-22T06:43:46.968Z,69.55
2018-12-22T06:46:17.241Z,68.72
2018-12-22T06:48:47.383Z,68.46
2018-12-22T06:51:17.518Z,68.12
2018-12-22T06:53:47.610Z,68.55
2018-12-22T06:56:17.950Z,70.24
2018-12-22T06:58:48.024Z,71.00
2018-12-22T07:01:18.308Z,70.99
2018-12-22T07:03:48.608Z,71.86
2018-12-22T07:06:19.280Z,71.42
2018-12-22T07:08:49.603Z,71.35
2018-12-22T07:11:19.932Z,70.10
2018-12-22T07:13:50.500Z,68.52
2018-12-22T07:16:20.867Z,67.33
2018-12-22T07:18:51.256Z,66.39
2018-12-22T07:21:21.373Z,64.76
2018-12-22T07:23:51.548Z,63.58
2018-12-22T07:26:22.527Z,62.76
2018-12-22T07:28:52.789Z,61.67
2018-12-22T07:31:22.857Z,60.50
2018-12-22T07:33:53.157Z,57.57
2018-12-22T07:36:25.248Z,55.99
2018-12-22T07:38:55.678Z,53.66
2018-12-22T07:41:25.967Z,53.36
2018-12-22T07:43:56.809Z,52.90
2018-12-22T07:46:27.104Z,50.96
2018-12-22T07:48:57.369Z,50.58
2018-12-22T07:51:27.593Z,49.48
2018-12-22T07:53:57.859Z,49.63
2018-12-22T07:56:28.094Z,49.69
2018-12-22T07:58:58.447Z,49.05
2018-12-22T08:01:28.640Z,50.35
2018-12-22T08:05:28.267Z,51.33
2018-12-22T08:07:58.534Z,51.18
2018-12-22T08:10:28.747Z,50.16
2018-12-22T08:12:58.860Z,49.15
2018-12-22T08:15:29.125Z,47.73
2018-12-22T08:17:59.407Z,45.27
2018-12-22T08:20:30.176Z,44.79
2018-12-22T08:23:00.348Z,43.49
2018-12-22T08:25:30.692Z,42.20
2018-12-22T08:28:00.886Z,39.95
2018-12-22T08:30:31.062Z,39.77
2018-12-22T08:33:01.305Z,37.73
2018-12-22T08:35:31.620Z,36.46
2018-12-22T08:38:01.891Z,35.39
2018-12-22T08:40:32.260Z,33.46
2018-12-22T08:43:02.502Z,32.05
2018-12-22T08:45:32.912Z,32.95
2018-12-22T08:48:03.147Z,33.69
2018-12-22T08:50:33.673Z,32.20
2018-12-22T08:53:03.819Z,32.45
2018-12-22T08:55:34.078Z,32.49
2018-12-22T08:58:04.272Z,32.22
2018-12-22T09:00:34.520Z,32.44
2018-12-22T09:07:45.412Z,35.33
2018-12-22T09:13:37.156Z,36.58
2018-12-22T09:16:07.540Z,38.22
2018-12-22T09:18:37.840Z,38.77
2018-12-22T09:21:08.045Z,39.79
2018-12-22T09:23:38.392Z,39.26
2018-12-22T09:26:08.669Z,39.71
2018-12-22T09:28:39.433Z,39.71
2018-12-22T09:31:09.740Z,40.46
2018-12-22T09:33:39.840Z,40.45
2018-12-22T09:36:10.170Z,41.55
2018-12-22T09:38:40.427Z,40.94
2018-12-22T09:41:10.714Z,42.81
2018-12-22T09:43:41.713Z,43.01
2018-12-22T09:46:12.096Z,42.95
2018-12-22T09:48:42.924Z,44.00
2018-12-22T09:51:13.252Z,44.79
2018-12-22T09:53:43.493Z,45.86
2018-12-22T09:56:13.732Z,46.01
2018-12-22T09:58:44.647Z,44.38
2018-12-22T10:01:15.074Z,43.99
2018-12-22T10:03:45.328Z,40.60
2018-12-22T10:06:15.543Z,38.87
2018-12-22T10:08:45.752Z,37.33
2018-12-22T10:11:15.965Z,34.81
2018-12-22T10:13:46.056Z,34.32
2018-12-22T10:16:16.248Z,33.55
2018-12-22T10:18:46.570Z,35.25
2018-12-22T10:21:16.937Z,33.86
2018-12-22T10:23:47.240Z,31.11
2018-12-22T10:26:17.453Z,30.81
2018-12-22T10:28:47.687Z,31.25
2018-12-22T10:31:19.025Z,31.13
2018-12-22T10:33:49.264Z,32.97
2018-12-22T10:36:19.456Z,34.48
2018-12-22T10:38:49.791Z,37.61
2018-12-22T10:41:20.479Z,36.20
2018-12-22T10:43:50.499Z,35.40
2018-12-22T10:46:20.765Z,36.97
2018-12-22T10:48:51.252Z,36.94
2018-12-22T10:51:24.326Z,36.20
2018-12-22T10:53:54.152Z,36.61
2018-12-22T10:56:24.485Z,36.49
2018-12-22T10:58:54.651Z,36.04
2018-12-22T11:01:26.594Z,35.80
2018-12-22T11:03:57.237Z,34.26
2018-12-22T11:06:27.614Z,33.71
2018-12-22T11:08:58.508Z,34.19
2018-12-22T11:11:28.767Z,35.71
2018-12-22T11:13:59.072Z,34.95
2018-12-22T11:16:29.730Z,33.56
2018-12-22T11:19:00.081Z,35.65
2018-12-22T11:21:31.180Z,36.02
2018-12-22T11:24:02.910Z,36.91
2018-12-22T11:26:34.949Z,35.66
2018-12-22T11:29:05.601Z,36.28
2018-12-22T11:31:35.902Z,36.47
2018-12-22T11:34:06.307Z,37.80
2018-12-22T11:36:38.038Z,36.84
2018-12-22T11:39:08.911Z,36.74
2018-12-22T11:41:39.306Z,36.96
2018-12-22T11:44:09.902Z,37.46
2018-12-22T11:46:41.048Z,36.41
2018-12-22T11:49:21.014Z,36.21
2018-12-22T11:51:51.329Z,36.00
2018-12-22T11:54:22.610Z,37.85
2018-12-22T11:56:52.828Z,38.14
2018-12-22T11:59:23.191Z,38.25
2018-12-22T12:01:53.460Z,39.83
2018-12-22T12:04:30.035Z,40.75
2018-12-22T12:07:00.395Z,42.32
2018-12-22T12:09:30.650Z,43.13
2018-12-22T12:12:00.906Z,43.63
2018-12-22T12:14:32.331Z,44.27
2018-12-22T12:17:13.506Z,45.75
2018-12-22T12:19:43.788Z,46.01
2018-12-22T12:22:14.445Z,46.99
2018-12-22T12:24:45.498Z,47.22
2018-12-22T12:27:15.536Z,47.70
2018-12-22T12:29:45.774Z,48.91
2018-12-22T12:35:01.955Z,50.21
2018-12-22T12:37:32.323Z,51.14
2018-12-22T12:40:02.587Z,51.57
2018-12-22T12:42:34.143Z,52.22
2018-12-22T12:45:05.014Z,53.03
2018-12-22T12:48:18.168Z,53.07
2018-12-22T12:50:48.571Z,53.82
2018-12-22T12:53:19.342Z,54.15
2018-12-22T12:55:49.613Z,54.39
2018-12-22T12:58:20.497Z,54.53
2018-12-22T13:00:50.912Z,55.17
2018-12-22T13:03:21.378Z,55.61
2018-12-22T13:05:51.682Z,56.86
2018-12-22T13:08:22.637Z,57.35
2018-12-22T13:10:52.955Z,57.44
2018-12-22T13:13:38.030Z,57.11
2018-12-22T13:16:08.302Z,57.83
2018-12-22T13:18:39.401Z,58.42
2018-12-22T13:21:10.263Z,58.11
2018-12-22T13:23:40.647Z,57.65
2018-12-22T13:26:10.910Z,57.86
2018-12-22T13:28:41.342Z,58.52
2018-12-22T13:31:11.896Z,58.01
2018-12-22T13:33:42.318Z,58.42
2018-12-22T13:36:12.883Z,58.51
2018-12-22T13:38:48.397Z,58.57
2018-12-22T13:41:18.457Z,58.77
2018-12-22T13:43:48.836Z,59.29
2018-12-22T13:46:19.248Z,59.62
2018-12-22T13:48:50.391Z,59.83
2018-12-22T13:51:20.944Z,59.41
2018-12-22T13:53:51.186Z,60.21
2018-12-22T13:56:21.538Z,59.85
2018-12-22T13:58:51.759Z,60.69
2018-12-22T14:01:23.062Z,60.67
2018-12-22T14:03:53.629Z,60.28
2018-12-22T14:06:30.194Z,60.67
2018-12-22T14:09:00.602Z,61.60
2018-12-22T14:11:30.925Z,61.73
2018-12-22T14:14:01.221Z,62.83
2018-12-22T14:16:49.157Z,63.56
2018-12-22T14:19:19.670Z,63.28
2018-12-22T14:21:50.707Z,63.94
2018-12-22T14:24:39.698Z,64.35
2018-12-22T14:27:09.928Z,64.21
2018-12-22T14:29:40.880Z,64.37
2018-12-22T14:32:11.066Z,65.06
2018-12-22T14:34:51.466Z,65.24
2018-12-22T14:37:21.731Z,65.66
2018-12-22T14:39:52.209Z,66.07
2018-12-22T14:42:22.552Z,64.84
2018-12-22T14:44:52.890Z,65.15
2018-12-22T14:47:23.202Z,64.49
2018-12-22T14:49:53.550Z,64.86
2018-12-22T14:52:23.652Z,65.00
2018-12-22T14:54:53.917Z,65.55
2018-12-22T14:57:24.985Z,65.94
2018-12-22T14:59:55.211Z,65.97
2018-12-22T15:02:25.548Z,66.42
2018-12-22T15:04:55.897Z,66.69
2018-12-22T15:07:26.135Z,66.81
2018-12-22T15:09:56.371Z,66.85
2018-12-22T15:12:27.292Z,66.32
2018-12-22T15:14:58.689Z,66.75
2018-12-22T15:17:29.857Z,66.25
2018-12-22T15:20:00.383Z,65.97
2018-12-22T15:22:31.532Z,66.09
2018-12-22T15:25:02.127Z,66.72
2018-12-22T15:27:33.114Z,66.52
2018-12-22T15:30:03.559Z,65.96
2018-12-22T15:32:34.330Z,66.41
2018-12-22T15:35:05.063Z,66.79
2018-12-22T15:37:36.065Z,67.44
2018-12-22T15:40:06.702Z,67.06
2018-12-22T15:42:37.722Z,66.67
2018-12-22T15:45:10.727Z,67.00
2018-12-22T15:47:42.417Z,67.17
2018-12-22T15:50:15.556Z,67.13
2018-12-22T15:52:45.747Z,66.47
2018-12-22T15:55:16.155Z,66.47
2018-12-22T15:57:46.304Z,67.49
2018-12-22T16:00:16.596Z,68.43
2018-12-22T16:02:53.050Z,67.66
2018-12-22T16:05:22.159Z,67.66
2018-12-22T16:07:53.284Z,67.83
2018-12-22T16:10:24.211Z,67.74
2018-12-22T16:12:55.027Z,67.41
2018-12-22T16:15:25.364Z,67.75
2018-12-22T16:17:55.753Z,67.24
2018-12-22T16:20:26.996Z,67.26
2018-12-22T16:23:02.157Z,67.06
2018-12-22T16:25:33.089Z,66.67
2018-12-22T16:28:13.820Z,67.01
2018-12-22T16:30:49.619Z,67.19
2018-12-22T16:33:20.599Z,66.48
2018-12-22T16:35:50.844Z,66.36
2018-12-22T16:38:21.231Z,66.78
2018-12-22T16:40:52.042Z,67.26
2018-12-22T16:43:22.413Z,67.06
2018-12-22T16:45:53.205Z,67.34
2018-12-22T16:48:25.501Z,67.29
2018-12-22T16:50:56.654Z,67.53
2018-12-22T16:53:29.091Z,67.14
2018-12-22T16:55:59.607Z,67.24
2018-12-22T16:58:33.811Z,67.16
2018-12-22T17:01:18.205Z,68.10
2018-12-22T17:03:49.697Z,67.69
2018-12-22T17:06:21.002Z,67.50
2018-12-22T17:08:52.188Z,67.75
2018-12-22T17:11:23.677Z,67.37
2018-12-22T17:13:53.911Z,67.63
2018-12-22T17:16:26.249Z,67.60
2018-12-22T17:18:56.794Z,67.46
2018-12-22T17:21:32.647Z,67.89
2018-12-22T17:24:09.981Z,68.50
2018-12-22T17:26:43.592Z,69.13
2018-12-22T17:29:14.245Z,68.67
2018-12-22T17:31:46.423Z,68.47
2018-12-22T17:34:16.645Z,67.84
2018-12-22T17:36:46.973Z,68.47
2018-12-22T17:39:18.011Z,68.63
2018-12-22T17:41:48.711Z,68.12
2018-12-22T17:44:19.086Z,68.34
2018-12-22T17:46:49.342Z,68.97
2018-12-22T17:49:19.710Z,69.29
2018-12-22T17:51:50.110Z,68.63
2018-12-22T17:54:21.274Z,69.21
2018-12-22T17:56:51.412Z,68.53
2018-12-22T17:59:21.696Z,68.76
2018-12-22T18:01:51.850Z,68.30
2018-12-22T18:04:22.206Z,68.76
2018-12-22T18:06:53.196Z,69.43
2018-12-22T18:09:24.433Z,69.16
2018-12-22T18:11:54.793Z,69.71
2018-12-22T18:14:25.214Z,69.96
2018-12-22T18:16:55.663Z,69.63
2018-12-22T18:19:25.870Z,69.25
2018-12-22T18:21:56.145Z,69.65
2018-12-22T18:24:26.460Z,69.67
2018-12-22T18:26:56.947Z,70.46
2018-12-22T18:29:27.143Z,69.71
2018-12-22T18:31:57.687Z,69.80
2018-12-22T18:34:27.921Z,69.12
2018-12-22T18:36:58.130Z,69.42
2018-12-22T18:39:29.037Z,69.33
2018-12-22T18:41:59.477Z,69.54
2018-12-22T18:44:29.457Z,70.99
2018-12-22T18:46:59.773Z,71.00
2018-12-22T18:49:30.241Z,71.79
2018-12-22T18:52:00.668Z,71.33
2018-12-22T18:54:30.841Z,70.76
2018-12-22T18:57:01.699Z,70.65
2018-12-22T18:59:31.971Z,70.69
2018-12-22T19:02:02.126Z,69.77
2018-12-22T19:04:32.460Z,69.00
2018-12-22T19:07:02.889Z,68.41
2018-12-22T19:09:34.922Z,68.61
2018-12-22T19:12:10.779Z,68.85
2018-12-22T19:14:41.097Z,68.75
2018-12-22T19:17:11.477Z,69.53
2018-12-22T19:19:41.761Z,69.59
2018-12-22T19:22:11.866Z,69.95
2018-12-22T19:24:42.157Z,69.97
2018-12-22T19:27:12.608Z,69.81
2018-12-22T19:29:43.012Z,69.67
2018-12-22T19:32:13.260Z,68.19
2018-12-22T19:34:43.579Z,68.65
2018-12-22T19:37:14.291Z,69.26
2018-12-22T19:39:44.506Z,68.48
2018-12-22T19:42:14.799Z,68.50
2018-12-22T19:44:45.098Z,68.51
2018-12-22T19:47:15.401Z,68.18
2018-12-22T19:49:45.843Z,69.05
2018-12-22T19:52:16.062Z,68.30
2018-12-22T19:54:46.187Z,68.46
2018-12-22T19:57:16.459Z,69.07
2018-12-22T19:59:46.624Z,70.19
2018-12-22T20:02:16.870Z,69.16
2018-12-22T20:04:47.177Z,69.15
2018-12-22T20:07:17.476Z,68.92
2018-12-22T20:09:48.384Z,71.00
2018-12-22T20:12:18.585Z,71.43
2018-12-22T20:14:48.764Z,71.24
2018-12-22T20:17:19.239Z,70.93
2018-12-22T20:19:49.533Z,71.40
2018-12-22T20:22:19.736Z,71.07
2018-12-22T20:24:50.551Z,70.78
2018-12-22T20:27:20.998Z,71.04
2018-12-22T20:29:51.165Z,71.19
2018-12-22T20:32:21.612Z,71.19
2018-12-22T20:34:51.944Z,71.05
2018-12-22T20:37:22.024Z,71.19
2018-12-22T20:39:52.252Z,71.30
2018-12-22T20:42:22.309Z,70.33
2018-12-22T20:44:52.630Z,70.59
2018-12-22T20:47:22.746Z,69.41
2018-12-22T20:49:53.074Z,70.79
2018-12-22T20:52:23.245Z,69.83
2018-12-22T20:54:53.482Z,70.00
2018-12-22T20:57:23.730Z,70.05
2018-12-22T20:59:53.976Z,70.04
2018-12-22T21:02:24.421Z,69.96
2018-12-22T21:04:54.581Z,69.40
2018-12-22T21:07:24.955Z,69.84
2018-12-22T21:09:55.172Z,68.50
2018-12-22T21:12:25.352Z,68.84
2018-12-22T21:14:55.401Z,68.23
2018-12-22T21:17:25.815Z,68.03
2018-12-22T21:19:56.073Z,67.05
2018-12-22T21:22:26.322Z,67.55
2018-12-22T21:24:56.649Z,67.98
2018-12-22T21:27:27.314Z,68.62
2018-12-22T21:29:57.433Z,69.48
2018-12-22T21:32:27.610Z,69.08
2018-12-22T21:34:58.192Z,69.30
2018-12-22T21:37:28.458Z,69.31
2018-12-22T21:39:59.341Z,69.57
2018-12-22T21:42:29.553Z,69.80
2018-12-22T21:45:00.528Z,69.85
2018-12-22T21:47:30.730Z,69.51
2018-12-22T21:50:00.952Z,69.97
2018-12-22T21:52:31.235Z,70.20
2018-12-22T21:55:01.422Z,69.48
2018-12-22T21:57:32.268Z,69.93
2018-12-22T22:00:02.473Z,70.06
2018-12-22T22:02:32.760Z,70.21
2018-12-22T22:05:02.976Z,70.09
2018-12-22T22:07:33.266Z,69.68
2018-12-22T22:10:03.664Z,69.63
2018-12-22T22:12:34.020Z,69.47
2018-12-22T22:15:04.394Z,69.66
2018-12-22T22:17:34.513Z,68.81
2018-12-22T22:20:07.128Z,69.24
2018-12-22T22:22:37.563Z,70.17
2018-12-22T22:25:07.911Z,70.24
2018-12-22T22:27:38.247Z,70.07
2018-12-22T22:30:08.849Z,69.63
2018-12-22T22:32:39.146Z,68.81
2018-12-22T22:35:09.383Z,69.07
2018-12-22T22:37:39.617Z,69.48
2018-12-22T22:40:09.851Z,69.37
2018-12-22T22:42:40.641Z,68.37
2018-12-22T22:45:11.019Z,68.74
2018-12-22T22:47:41.172Z,68.64
2018-12-22T22:50:11.272Z,69.01
2018-12-22T22:52:41.522Z,68.51
2018-12-22T22:55:11.827Z,67.96
2018-12-22T22:57:42.101Z,68.26
2018-12-22T23:00:20.748Z,68.09
2018-12-22T23:02:51.012Z,68.76
2018-12-22T23:05:21.224Z,68.49
2018-12-22T23:07:51.487Z,68.91
2018-12-22T23:10:22.139Z,69.09
2018-12-22T23:12:52.378Z,69.55
2018-12-22T23:15:22.613Z,68.58
2018-12-22T23:17:52.921Z,68.53
2018-12-22T23:20:23.184Z,69.24
2018-12-22T23:22:53.711Z,69.98
2018-12-22T23:25:24.039Z,70.29
2018-12-22T23:27:54.212Z,70.04
2018-12-22T23:30:24.476Z,70.48
2018-12-22T23:32:54.788Z,70.78
2018-12-22T23:35:25.210Z,70.57
2018-12-22T23:37:55.560Z,69.64
2018-12-22T23:40:25.916Z,70.06
2018-12-22T23:42:56.152Z,69.86
2018-12-22T23:45:27.072Z,70.05
2018-12-22T23:47:57.575Z,71.63
2018-12-22T23:50:27.992Z,71.00
2018-12-22T23:52:58.123Z,70.34
2018-12-22T23:55:28.300Z,70.02
2018-12-22T23:57:58.565Z,70.51
